sensor_id;sensor_type;location;lat;lon;timestamp;temperature;humidity
56538;DHT22;42435;53.292;6.000;2023-07-08T00:00:49;17.80;65.70
56538;DHT22;42435;53.292;6.000;2023-07-08T00:03:16;17.80;65.80
56538;DHT22;42435;53.292;6.000;2023-07-08T00:05:41;17.70;65.80
56538;DHT22;42435;53.292;6.000;2023-07-08T00:08:14;17.70;65.80
56538;DHT22;42435;53.292;6.000;2023-07-08T00:10:40;17.70;66.00
56538;DHT22;42435;53.292;6.000;2023-07-08T00:13:07;17.70;65.80
56538;DHT22;42435;53.292;6.000;2023-07-08T00:15:33;17.70;66.00
56538;DHT22;42435;53.292;6.000;2023-07-08T00:18:00;17.70;66.00
56538;DHT22;42435;53.292;6.000;2023-07-08T00:20:40;17.60;66.10
56538;DHT22;42435;53.292;6.000;2023-07-08T00:23:08;17.60;66.30
56538;DHT22;42435;53.292;6.000;2023-07-08T00:25:34;17.50;66.10
56538;DHT22;42435;53.292;6.000;2023-07-08T00:28:00;17.60;66.10
56538;DHT22;42435;53.292;6.000;2023-07-08T00:30:30;17.50;66.30
56538;DHT22;42435;53.292;6.000;2023-07-08T00:32:57;17.50;66.40
56538;DHT22;42435;53.292;6.000;2023-07-08T00:35:28;17.50;66.50
56538;DHT22;42435;53.292;6.000;2023-07-08T00:37:54;17.50;66.50
56538;DHT22;42435;53.292;6.000;2023-07-08T00:40:27;17.50;66.50
56538;DHT22;42435;53.292;6.000;2023-07-08T00:42:53;17.50;66.60
56538;DHT22;42435;53.292;6.000;2023-07-08T00:48:20;17.50;66.90
56538;DHT22;42435;53.292;6.000;2023-07-08T00:50:47;17.40;66.80
56538;DHT22;42435;53.292;6.000;2023-07-08T00:53:31;17.40;66.80
56538;DHT22;42435;53.292;6.000;2023-07-08T00:58:50;17.50;67.00
56538;DHT22;42435;53.292;6.000;2023-07-08T01:01:17;17.40;67.00
56538;DHT22;42435;53.292;6.000;2023-07-08T01:03:56;17.50;66.90
56538;DHT22;42435;53.292;6.000;2023-07-08T01:06:23;17.40;67.20
56538;DHT22;42435;53.292;6.000;2023-07-08T01:09:03;17.40;67.00
56538;DHT22;42435;53.292;6.000;2023-07-08T01:11:32;17.40;67.00
56538;DHT22;42435;53.292;6.000;2023-07-08T01:13:59;17.40;67.00
56538;DHT22;42435;53.292;6.000;2023-07-08T01:16:26;17.40;67.10
56538;DHT22;42435;53.292;6.000;2023-07-08T01:18:51;17.40;67.20
56538;DHT22;42435;53.292;6.000;2023-07-08T01:21:31;17.40;67.30
56538;DHT22;42435;53.292;6.000;2023-07-08T01:23:58;17.40;67.40
56538;DHT22;42435;53.292;6.000;2023-07-08T01:26:25;17.40;67.20
56538;DHT22;42435;53.292;6.000;2023-07-08T01:28:52;17.40;67.30
56538;DHT22;42435;53.292;6.000;2023-07-08T01:31:19;17.30;67.30
56538;DHT22;42435;53.292;6.000;2023-07-08T01:33:44;17.40;67.40
56538;DHT22;42435;53.292;6.000;2023-07-08T01:36:11;17.40;67.40
56538;DHT22;42435;53.292;6.000;2023-07-08T01:38:39;17.40;67.40
56538;DHT22;42435;53.292;6.000;2023-07-08T01:41:05;17.40;67.30
56538;DHT22;42435;53.292;6.000;2023-07-08T01:43:31;17.40;67.30
56538;DHT22;42435;53.292;6.000;2023-07-08T01:46:00;17.40;67.30
56538;DHT22;42435;53.292;6.000;2023-07-08T01:48:33;17.40;67.30
56538;DHT22;42435;53.292;6.000;2023-07-08T01:51:06;17.40;67.30
56538;DHT22;42435;53.292;6.000;2023-07-08T01:53:40;17.40;67.20
56538;DHT22;42435;53.292;6.000;2023-07-08T01:56:07;17.40;67.30
56538;DHT22;42435;53.292;6.000;2023-07-08T01:58:33;17.40;67.20
56538;DHT22;42435;53.292;6.000;2023-07-08T02:00:59;17.40;67.30
56538;DHT22;42435;53.292;6.000;2023-07-08T02:03:26;17.40;67.40
56538;DHT22;42435;53.292;6.000;2023-07-08T02:05:52;17.40;67.50
56538;DHT22;42435;53.292;6.000;2023-07-08T02:08:18;17.40;67.60
56538;DHT22;42435;53.292;6.000;2023-07-08T02:10:49;17.40;67.60
56538;DHT22;42435;53.292;6.000;2023-07-08T02:13:14;17.40;67.80
56538;DHT22;42435;53.292;6.000;2023-07-08T02:15:40;17.40;67.80
56538;DHT22;42435;53.292;6.000;2023-07-08T02:18:06;17.40;67.90
56538;DHT22;42435;53.292;6.000;2023-07-08T02:20:31;17.30;67.90
56538;DHT22;42435;53.292;6.000;2023-07-08T02:22:57;17.30;68.00
56538;DHT22;42435;53.292;6.000;2023-07-08T02:25:26;17.30;68.00
56538;DHT22;42435;53.292;6.000;2023-07-08T02:27:52;17.30;68.10
56538;DHT22;42435;53.292;6.000;2023-07-08T02:30:25;17.30;68.20
56538;DHT22;42435;53.292;6.000;2023-07-08T02:32:51;17.20;68.20
56538;DHT22;42435;53.292;6.000;2023-07-08T02:35:30;17.30;68.30
56538;DHT22;42435;53.292;6.000;2023-07-08T02:37:56;17.30;68.30
56538;DHT22;42435;53.292;6.000;2023-07-08T02:40:23;17.30;68.40
56538;DHT22;42435;53.292;6.000;2023-07-08T02:42:49;17.20;68.40
56538;DHT22;42435;53.292;6.000;2023-07-08T02:45:16;17.20;68.50
56538;DHT22;42435;53.292;6.000;2023-07-08T02:47:45;17.20;68.50
56538;DHT22;42435;53.292;6.000;2023-07-08T02:50:11;17.20;68.50
56538;DHT22;42435;53.292;6.000;2023-07-08T02:52:37;17.20;68.50
56538;DHT22;42435;53.292;6.000;2023-07-08T02:55:03;17.20;68.60
56538;DHT22;42435;53.292;6.000;2023-07-08T02:57:29;17.10;68.60
56538;DHT22;42435;53.292;6.000;2023-07-08T02:59:54;17.20;68.70
56538;DHT22;42435;53.292;6.000;2023-07-08T03:02:22;17.10;68.70
56538;DHT22;42435;53.292;6.000;2023-07-08T03:04:48;17.10;68.70
56538;DHT22;42435;53.292;6.000;2023-07-08T03:07:16;17.10;68.70
56538;DHT22;42435;53.292;6.000;2023-07-08T03:09:42;17.10;68.70
56538;DHT22;42435;53.292;6.000;2023-07-08T03:12:09;17.10;68.80
56538;DHT22;42435;53.292;6.000;2023-07-08T03:14:35;17.00;68.80
56538;DHT22;42435;53.292;6.000;2023-07-08T03:17:02;17.00;68.90
56538;DHT22;42435;53.292;6.000;2023-07-08T03:19:27;17.00;69.00
56538;DHT22;42435;53.292;6.000;2023-07-08T03:21:53;17.00;69.00
56538;DHT22;42435;53.292;6.000;2023-07-08T03:24:20;17.00;69.00
56538;DHT22;42435;53.292;6.000;2023-07-08T03:26:46;16.90;69.10
56538;DHT22;42435;53.292;6.000;2023-07-08T03:29:15;16.90;69.10
56538;DHT22;42435;53.292;6.000;2023-07-08T03:31:41;16.90;69.30
56538;DHT22;42435;53.292;6.000;2023-07-08T03:34:10;16.90;69.20
56538;DHT22;42435;53.292;6.000;2023-07-08T03:36:40;16.90;69.30
56538;DHT22;42435;53.292;6.000;2023-07-08T03:39:09;16.90;69.20
56538;DHT22;42435;53.292;6.000;2023-07-08T03:41:35;16.90;69.30
56538;DHT22;42435;53.292;6.000;2023-07-08T03:44:01;16.90;69.30
56538;DHT22;42435;53.292;6.000;2023-07-08T03:46:26;16.90;69.20
56538;DHT22;42435;53.292;6.000;2023-07-08T03:48:52;16.90;69.30
56538;DHT22;42435;53.292;6.000;2023-07-08T03:51:22;16.90;69.30
56538;DHT22;42435;53.292;6.000;2023-07-08T03:53:48;16.90;69.40
56538;DHT22;42435;53.292;6.000;2023-07-08T03:56:13;17.00;69.30
56538;DHT22;42435;53.292;6.000;2023-07-08T03:58:39;17.00;69.30
56538;DHT22;42435;53.292;6.000;2023-07-08T04:01:07;17.00;69.30
56538;DHT22;42435;53.292;6.000;2023-07-08T04:03:35;17.00;69.30
56538;DHT22;42435;53.292;6.000;2023-07-08T04:06:00;17.00;69.30
56538;DHT22;42435;53.292;6.000;2023-07-08T04:08:26;17.00;69.40
56538;DHT22;42435;53.292;6.000;2023-07-08T04:10:55;17.00;69.40
56538;DHT22;42435;53.292;6.000;2023-07-08T04:13:20;17.10;69.50
56538;DHT22;42435;53.292;6.000;2023-07-08T04:16:02;17.10;69.50
56538;DHT22;42435;53.292;6.000;2023-07-08T04:18:28;17.10;69.60
56538;DHT22;42435;53.292;6.000;2023-07-08T04:20:53;17.10;69.50
56538;DHT22;42435;53.292;6.000;2023-07-08T04:23:19;17.10;69.50
56538;DHT22;42435;53.292;6.000;2023-07-08T04:25:46;17.20;69.50
56538;DHT22;42435;53.292;6.000;2023-07-08T04:28:13;17.20;69.60
56538;DHT22;42435;53.292;6.000;2023-07-08T04:30:38;17.20;69.60
56538;DHT22;42435;53.292;6.000;2023-07-08T04:33:09;17.20;69.50
56538;DHT22;42435;53.292;6.000;2023-07-08T04:35:36;17.30;69.50
56538;DHT22;42435;53.292;6.000;2023-07-08T04:38:17;17.30;69.50
56538;DHT22;42435;53.292;6.000;2023-07-08T04:40:47;17.40;69.40
56538;DHT22;42435;53.292;6.000;2023-07-08T04:43:12;17.40;69.40
56538;DHT22;42435;53.292;6.000;2023-07-08T04:45:39;17.50;69.40
56538;DHT22;42435;53.292;6.000;2023-07-08T04:48:06;17.50;69.30
56538;DHT22;42435;53.292;6.000;2023-07-08T04:50:34;17.60;69.20
56538;DHT22;42435;53.292;6.000;2023-07-08T04:53:00;17.70;69.20
56538;DHT22;42435;53.292;6.000;2023-07-08T04:55:25;17.70;69.10
56538;DHT22;42435;53.292;6.000;2023-07-08T04:57:51;17.80;68.90
56538;DHT22;42435;53.292;6.000;2023-07-08T05:00:18;17.90;68.80
56538;DHT22;42435;53.292;6.000;2023-07-08T05:02:45;17.90;68.70
56538;DHT22;42435;53.292;6.000;2023-07-08T05:05:10;18.00;68.50
56538;DHT22;42435;53.292;6.000;2023-07-08T05:07:36;18.10;68.30
56538;DHT22;42435;53.292;6.000;2023-07-08T05:10:02;18.20;68.30
56538;DHT22;42435;53.292;6.000;2023-07-08T05:12:31;18.20;68.20
56538;DHT22;42435;53.292;6.000;2023-07-08T05:14:56;18.30;68.10
56538;DHT22;42435;53.292;6.000;2023-07-08T05:17:22;18.40;68.00
56538;DHT22;42435;53.292;6.000;2023-07-08T05:19:47;18.40;67.90
56538;DHT22;42435;53.292;6.000;2023-07-08T05:22:16;18.40;67.90
56538;DHT22;42435;53.292;6.000;2023-07-08T05:24:43;18.50;67.90
56538;DHT22;42435;53.292;6.000;2023-07-08T05:27:09;18.60;67.70
56538;DHT22;42435;53.292;6.000;2023-07-08T05:29:34;18.70;67.60
56538;DHT22;42435;53.292;6.000;2023-07-08T05:32:00;18.70;67.60
56538;DHT22;42435;53.292;6.000;2023-07-08T05:34:26;18.80;67.40
56538;DHT22;42435;53.292;6.000;2023-07-08T05:36:51;18.90;67.10
56538;DHT22;42435;53.292;6.000;2023-07-08T05:39:17;18.90;67.10
56538;DHT22;42435;53.292;6.000;2023-07-08T05:41:42;19.00;66.90
56538;DHT22;42435;53.292;6.000;2023-07-08T05:44:08;19.10;66.80
56538;DHT22;42435;53.292;6.000;2023-07-08T05:46:34;19.20;66.70
56538;DHT22;42435;53.292;6.000;2023-07-08T05:49:00;19.30;66.70
56538;DHT22;42435;53.292;6.000;2023-07-08T05:51:25;19.40;66.80
56538;DHT22;42435;53.292;6.000;2023-07-08T05:53:51;19.40;66.90
56538;DHT22;42435;53.292;6.000;2023-07-08T05:56:16;19.50;66.70
56538;DHT22;42435;53.292;6.000;2023-07-08T05:58:42;19.60;66.50
56538;DHT22;42435;53.292;6.000;2023-07-08T06:01:07;19.80;66.20
56538;DHT22;42435;53.292;6.000;2023-07-08T06:03:33;19.90;66.00
56538;DHT22;42435;53.292;6.000;2023-07-08T06:05:59;20.00;65.80
56538;DHT22;42435;53.292;6.000;2023-07-08T06:08:24;20.20;65.40
56538;DHT22;42435;53.292;6.000;2023-07-08T06:10:50;20.50;64.60
56538;DHT22;42435;53.292;6.000;2023-07-08T06:13:16;20.90;63.80
56538;DHT22;42435;53.292;6.000;2023-07-08T06:15:42;21.40;62.50
56538;DHT22;42435;53.292;6.000;2023-07-08T06:18:08;21.50;62.00
56538;DHT22;42435;53.292;6.000;2023-07-08T06:20:33;21.60;62.20
56538;DHT22;42435;53.292;6.000;2023-07-08T06:22:59;21.70;62.10
56538;DHT22;42435;53.292;6.000;2023-07-08T06:25:25;21.80;62.00
56538;DHT22;42435;53.292;6.000;2023-07-08T06:27:51;21.90;61.60
56538;DHT22;42435;53.292;6.000;2023-07-08T06:30:18;22.10;61.30
56538;DHT22;42435;53.292;6.000;2023-07-08T06:32:43;22.40;60.50
56538;DHT22;42435;53.292;6.000;2023-07-08T06:35:09;22.50;60.00
56538;DHT22;42435;53.292;6.000;2023-07-08T06:37:34;22.50;59.40
56538;DHT22;42435;53.292;6.000;2023-07-08T06:40:00;22.80;59.50
56538;DHT22;42435;53.292;6.000;2023-07-08T06:42:26;23.00;58.80
56538;DHT22;42435;53.292;6.000;2023-07-08T06:44:51;23.30;58.30
56538;DHT22;42435;53.292;6.000;2023-07-08T06:47:18;23.50;57.50
56538;DHT22;42435;53.292;6.000;2023-07-08T06:49:46;23.80;56.80
56538;DHT22;42435;53.292;6.000;2023-07-08T06:52:11;24.00;56.40
56538;DHT22;42435;53.292;6.000;2023-07-08T06:54:37;24.20;55.80
56538;DHT22;42435;53.292;6.000;2023-07-08T06:57:02;24.40;55.30
56538;DHT22;42435;53.292;6.000;2023-07-08T06:59:28;24.40;55.30
56538;DHT22;42435;53.292;6.000;2023-07-08T07:01:54;24.50;54.60
56538;DHT22;42435;53.292;6.000;2023-07-08T07:04:20;24.50;54.80
56538;DHT22;42435;53.292;6.000;2023-07-08T07:06:45;24.60;54.80
56538;DHT22;42435;53.292;6.000;2023-07-08T07:09:11;24.70;54.60
56538;DHT22;42435;53.292;6.000;2023-07-08T07:11:36;24.80;54.10
56538;DHT22;42435;53.292;6.000;2023-07-08T07:14:02;24.90;53.40
56538;DHT22;42435;53.292;6.000;2023-07-08T07:16:28;24.90;53.10
56538;DHT22;42435;53.292;6.000;2023-07-08T07:18:53;24.90;53.20
56538;DHT22;42435;53.292;6.000;2023-07-08T07:21:19;25.00;53.20
56538;DHT22;42435;53.292;6.000;2023-07-08T07:23:45;25.10;53.40
56538;DHT22;42435;53.292;6.000;2023-07-08T07:26:10;25.30;53.10
56538;DHT22;42435;53.292;6.000;2023-07-08T07:28:36;25.40;52.60
56538;DHT22;42435;53.292;6.000;2023-07-08T07:31:02;25.40;52.20
56538;DHT22;42435;53.292;6.000;2023-07-08T07:33:30;25.40;52.10
56538;DHT22;42435;53.292;6.000;2023-07-08T07:35:55;25.40;52.50
56538;DHT22;42435;53.292;6.000;2023-07-08T07:38:21;25.50;52.00
56538;DHT22;42435;53.292;6.000;2023-07-08T07:40:47;25.60;51.80
56538;DHT22;42435;53.292;6.000;2023-07-08T07:43:14;25.70;51.50
56538;DHT22;42435;53.292;6.000;2023-07-08T07:45:39;25.80;51.00
56538;DHT22;42435;53.292;6.000;2023-07-08T07:48:05;25.80;51.40
56538;DHT22;42435;53.292;6.000;2023-07-08T07:50:31;25.90;51.10
56538;DHT22;42435;53.292;6.000;2023-07-08T07:52:56;25.90;51.20
56538;DHT22;42435;53.292;6.000;2023-07-08T07:55:25;26.10;51.00
56538;DHT22;42435;53.292;6.000;2023-07-08T07:57:51;26.30;50.50
56538;DHT22;42435;53.292;6.000;2023-07-08T08:00:16;26.40;50.00
56538;DHT22;42435;53.292;6.000;2023-07-08T08:02:43;26.40;49.40
56538;DHT22;42435;53.292;6.000;2023-07-08T08:05:09;26.60;49.30
56538;DHT22;42435;53.292;6.000;2023-07-08T08:07:34;26.70;49.20
56538;DHT22;42435;53.292;6.000;2023-07-08T08:10:02;26.80;49.40
56538;DHT22;42435;53.292;6.000;2023-07-08T08:12:27;26.90;49.00
56538;DHT22;42435;53.292;6.000;2023-07-08T08:14:53;27.00;48.50
56538;DHT22;42435;53.292;6.000;2023-07-08T08:17:18;27.10;48.70
56538;DHT22;42435;53.292;6.000;2023-07-08T08:19:44;27.30;48.60
56538;DHT22;42435;53.292;6.000;2023-07-08T08:22:09;27.40;48.60
56538;DHT22;42435;53.292;6.000;2023-07-08T08:24:35;27.60;48.20
56538;DHT22;42435;53.292;6.000;2023-07-08T08:27:01;27.70;46.90
56538;DHT22;42435;53.292;6.000;2023-07-08T08:29:26;27.80;47.50
56538;DHT22;42435;53.292;6.000;2023-07-08T08:31:52;27.90;47.00
56538;DHT22;42435;53.292;6.000;2023-07-08T08:34:20;28.00;46.40
56538;DHT22;42435;53.292;6.000;2023-07-08T08:36:45;28.20;46.50
56538;DHT22;42435;53.292;6.000;2023-07-08T08:39:11;28.30;47.00
56538;DHT22;42435;53.292;6.000;2023-07-08T08:41:40;28.50;46.20
56538;DHT22;42435;53.292;6.000;2023-07-08T08:44:12;28.70;46.90
56538;DHT22;42435;53.292;6.000;2023-07-08T08:49:56;29.00;46.00
56538;DHT22;42435;53.292;6.000;2023-07-08T08:52:22;29.30;45.10
56538;DHT22;42435;53.292;6.000;2023-07-08T08:54:48;29.30;44.20
56538;DHT22;42435;53.292;6.000;2023-07-08T08:57:36;29.40;43.80
56538;DHT22;42435;53.292;6.000;2023-07-08T09:00:03;29.40;43.90
56538;DHT22;42435;53.292;6.000;2023-07-08T09:02:57;29.50;43.20
56538;DHT22;42435;53.292;6.000;2023-07-08T09:05:25;29.60;43.10
56538;DHT22;42435;53.292;6.000;2023-07-08T09:07:59;29.80;43.90
56538;DHT22;42435;53.292;6.000;2023-07-08T09:12:57;30.10;42.60
56538;DHT22;42435;53.292;6.000;2023-07-08T09:15:26;30.20;42.90
56538;DHT22;42435;53.292;6.000;2023-07-08T09:17:53;30.40;43.80
56538;DHT22;42435;53.292;6.000;2023-07-08T09:20:25;30.50;43.40
56538;DHT22;42435;53.292;6.000;2023-07-08T09:22:59;30.70;42.20
56538;DHT22;42435;53.292;6.000;2023-07-08T09:25:30;30.80;41.70
56538;DHT22;42435;53.292;6.000;2023-07-08T09:27:57;30.90;41.80
56538;DHT22;42435;53.292;6.000;2023-07-08T09:30:24;30.90;41.20
56538;DHT22;42435;53.292;6.000;2023-07-08T09:32:54;31.00;41.20
56538;DHT22;42435;53.292;6.000;2023-07-08T09:35:24;31.10;41.00
56538;DHT22;42435;53.292;6.000;2023-07-08T09:37:50;31.30;41.20
56538;DHT22;42435;53.292;6.000;2023-07-08T09:42:43;31.40;40.20
56538;DHT22;42435;53.292;6.000;2023-07-08T09:45:15;31.40;40.20
56538;DHT22;42435;53.292;6.000;2023-07-08T09:47:46;31.40;40.70
56538;DHT22;42435;53.292;6.000;2023-07-08T09:50:26;31.50;40.80
56538;DHT22;42435;53.292;6.000;2023-07-08T09:52:56;31.60;40.90
56538;DHT22;42435;53.292;6.000;2023-07-08T09:55:23;31.70;40.90
56538;DHT22;42435;53.292;6.000;2023-07-08T09:57:51;31.80;40.90
56538;DHT22;42435;53.292;6.000;2023-07-08T10:00:25;32.00;40.50
56538;DHT22;42435;53.292;6.000;2023-07-08T10:02:54;32.10;39.90
56538;DHT22;42435;53.292;6.000;2023-07-08T10:05:41;32.10;39.40
56538;DHT22;42435;53.292;6.000;2023-07-08T10:08:19;32.20;40.00
56538;DHT22;42435;53.292;6.000;2023-07-08T10:10:47;32.20;39.90
56538;DHT22;42435;53.292;6.000;2023-07-08T10:13:24;32.30;39.40
56538;DHT22;42435;53.292;6.000;2023-07-08T10:16:11;32.40;40.60
56538;DHT22;42435;53.292;6.000;2023-07-08T10:18:38;32.50;41.30
56538;DHT22;42435;53.292;6.000;2023-07-08T10:21:15;32.70;40.00
56538;DHT22;42435;53.292;6.000;2023-07-08T10:26:33;33.00;39.20
56538;DHT22;42435;53.292;6.000;2023-07-08T10:40:19;33.20;38.80
56538;DHT22;42435;53.292;6.000;2023-07-08T10:45:28;33.40;39.00
56538;DHT22;42435;53.292;6.000;2023-07-08T10:56:35;33.70;37.50
56538;DHT22;42435;53.292;6.000;2023-07-08T11:08:22;33.80;36.60
56538;DHT22;42435;53.292;6.000;2023-07-08T11:11:23;33.60;37.30
56538;DHT22;42435;53.292;6.000;2023-07-08T11:13:55;33.80;37.70
56538;DHT22;42435;53.292;6.000;2023-07-08T11:16:49;33.90;37.60
56538;DHT22;42435;53.292;6.000;2023-07-08T11:19:21;34.10;38.20
56538;DHT22;42435;53.292;6.000;2023-07-08T11:21:52;34.30;37.60
56538;DHT22;42435;53.292;6.000;2023-07-08T11:24:28;34.40;37.20
56538;DHT22;42435;53.292;6.000;2023-07-08T11:26:59;34.50;36.80
56538;DHT22;42435;53.292;6.000;2023-07-08T11:29:39;34.50;36.20
56538;DHT22;42435;53.292;6.000;2023-07-08T11:32:06;34.50;36.50
56538;DHT22;42435;53.292;6.000;2023-07-08T11:34:37;34.50;36.90
56538;DHT22;42435;53.292;6.000;2023-07-08T11:37:04;34.60;36.90
56538;DHT22;42435;53.292;6.000;2023-07-08T11:39:42;34.70;36.10
56538;DHT22;42435;53.292;6.000;2023-07-08T11:42:19;34.70;35.80
56538;DHT22;42435;53.292;6.000;2023-07-08T11:44:54;34.70;36.30
56538;DHT22;42435;53.292;6.000;2023-07-08T11:49:53;35.00;36.10
56538;DHT22;42435;53.292;6.000;2023-07-08T11:52:20;35.00;35.80
56538;DHT22;42435;53.292;6.000;2023-07-08T11:54:48;35.20;35.30
56538;DHT22;42435;53.292;6.000;2023-07-08T11:57:25;35.20;35.10
56538;DHT22;42435;53.292;6.000;2023-07-08T12:02:50;35.30;34.70
56538;DHT22;42435;53.292;6.000;2023-07-08T12:05:17;35.40;34.90
56538;DHT22;42435;53.292;6.000;2023-07-08T12:07:47;35.50;34.60
56538;DHT22;42435;53.292;6.000;2023-07-08T12:10:39;35.60;34.70
56538;DHT22;42435;53.292;6.000;2023-07-08T12:13:13;35.70;34.10
56538;DHT22;42435;53.292;6.000;2023-07-08T12:15:40;35.90;34.50
56538;DHT22;42435;53.292;6.000;2023-07-08T12:18:16;35.90;34.40
56538;DHT22;42435;53.292;6.000;2023-07-08T12:20:55;35.90;34.40
56538;DHT22;42435;53.292;6.000;2023-07-08T12:23:23;36.00;33.70
56538;DHT22;42435;53.292;6.000;2023-07-08T12:25:49;36.10;33.40
56538;DHT22;42435;53.292;6.000;2023-07-08T12:28:17;36.10;32.60
56538;DHT22;42435;53.292;6.000;2023-07-08T12:30:47;36.20;32.90
56538;DHT22;42435;53.292;6.000;2023-07-08T12:33:17;36.30;32.30
56538;DHT22;42435;53.292;6.000;2023-07-08T12:35:44;36.30;32.70
56538;DHT22;42435;53.292;6.000;2023-07-08T12:38:26;36.40;32.90
56538;DHT22;42435;53.292;6.000;2023-07-08T12:40:54;36.50;32.40
56538;DHT22;42435;53.292;6.000;2023-07-08T12:43:20;36.60;32.50
56538;DHT22;42435;53.292;6.000;2023-07-08T12:45:46;36.70;32.30
56538;DHT22;42435;53.292;6.000;2023-07-08T12:48:12;36.90;32.20
56538;DHT22;42435;53.292;6.000;2023-07-08T12:50:37;36.90;31.50
56538;DHT22;42435;53.292;6.000;2023-07-08T12:53:05;36.90;31.50
56538;DHT22;42435;53.292;6.000;2023-07-08T12:55:36;36.90;31.30
56538;DHT22;42435;53.292;6.000;2023-07-08T12:58:02;37.00;31.10
56538;DHT22;42435;53.292;6.000;2023-07-08T13:00:31;37.00;31.60
56538;DHT22;42435;53.292;6.000;2023-07-08T13:03:04;37.20;30.80
56538;DHT22;42435;53.292;6.000;2023-07-08T13:05:30;37.30;30.30
56538;DHT22;42435;53.292;6.000;2023-07-08T13:07:57;37.40;29.90
56538;DHT22;42435;53.292;6.000;2023-07-08T13:10:25;37.40;29.40
56538;DHT22;42435;53.292;6.000;2023-07-08T13:12:57;37.40;28.90
56538;DHT22;42435;53.292;6.000;2023-07-08T13:15:29;37.40;29.10
56538;DHT22;42435;53.292;6.000;2023-07-08T13:17:58;37.40;29.20
56538;DHT22;42435;53.292;6.000;2023-07-08T13:20:24;37.40;29.70
56538;DHT22;42435;53.292;6.000;2023-07-08T13:23:09;37.40;30.60
56538;DHT22;42435;53.292;6.000;2023-07-08T13:25:37;37.40;30.00
56538;DHT22;42435;53.292;6.000;2023-07-08T13:28:19;37.40;29.50
56538;DHT22;42435;53.292;6.000;2023-07-08T13:31:00;37.50;29.10
56538;DHT22;42435;53.292;6.000;2023-07-08T13:33:31;37.50;29.10
56538;DHT22;42435;53.292;6.000;2023-07-08T13:35:57;37.60;29.30
56538;DHT22;42435;53.292;6.000;2023-07-08T13:38:34;37.60;29.50
56538;DHT22;42435;53.292;6.000;2023-07-08T13:41:02;37.70;30.20
56538;DHT22;42435;53.292;6.000;2023-07-08T13:43:30;37.70;29.60
56538;DHT22;42435;53.292;6.000;2023-07-08T13:45:57;37.80;29.40
56538;DHT22;42435;53.292;6.000;2023-07-08T13:48:29;37.80;29.30
56538;DHT22;42435;53.292;6.000;2023-07-08T13:53:43;37.90;29.10
56538;DHT22;42435;53.292;6.000;2023-07-08T13:56:14;37.90;29.20
56538;DHT22;42435;53.292;6.000;2023-07-08T13:58:49;37.80;29.00
56538;DHT22;42435;53.292;6.000;2023-07-08T14:01:19;37.50;29.00
56538;DHT22;42435;53.292;6.000;2023-07-08T14:03:49;37.40;29.40
56538;DHT22;42435;53.292;6.000;2023-07-08T14:06:18;37.20;29.60
56538;DHT22;42435;53.292;6.000;2023-07-08T14:08:44;37.20;30.00
56538;DHT22;42435;53.292;6.000;2023-07-08T14:11:10;37.20;30.30
56538;DHT22;42435;53.292;6.000;2023-07-08T14:13:36;37.30;30.10
56538;DHT22;42435;53.292;6.000;2023-07-08T14:16:03;37.30;29.50
56538;DHT22;42435;53.292;6.000;2023-07-08T14:18:31;37.20;29.80
56538;DHT22;42435;53.292;6.000;2023-07-08T14:20:58;37.20;30.20
56538;DHT22;42435;53.292;6.000;2023-07-08T14:23:24;37.20;29.90
56538;DHT22;42435;53.292;6.000;2023-07-08T14:25:49;37.10;29.30
56538;DHT22;42435;53.292;6.000;2023-07-08T14:28:15;36.90;30.00
56538;DHT22;42435;53.292;6.000;2023-07-08T14:30:45;36.80;31.20
56538;DHT22;42435;53.292;6.000;2023-07-08T14:33:13;36.80;32.60
56538;DHT22;42435;53.292;6.000;2023-07-08T14:35:42;36.90;34.80
56538;DHT22;42435;53.292;6.000;2023-07-08T14:38:10;36.90;33.90
56538;DHT22;42435;53.292;6.000;2023-07-08T14:40:37;36.90;33.50
56538;DHT22;42435;53.292;6.000;2023-07-08T14:43:06;36.90;36.00
56538;DHT22;42435;53.292;6.000;2023-07-08T14:45:46;36.90;36.90
56538;DHT22;42435;53.292;6.000;2023-07-08T14:48:12;36.80;37.20
56538;DHT22;42435;53.292;6.000;2023-07-08T14:50:38;36.80;37.50
56538;DHT22;42435;53.292;6.000;2023-07-08T14:53:04;36.80;37.60
56538;DHT22;42435;53.292;6.000;2023-07-08T14:55:30;36.70;37.50
56538;DHT22;42435;53.292;6.000;2023-07-08T14:57:56;36.80;37.60
56538;DHT22;42435;53.292;6.000;2023-07-08T15:00:22;36.70;38.60
56538;DHT22;42435;53.292;6.000;2023-07-08T15:02:51;36.70;38.30
56538;DHT22;42435;53.292;6.000;2023-07-08T15:05:25;36.60;37.60
56538;DHT22;42435;53.292;6.000;2023-07-08T15:07:57;36.60;38.60
56538;DHT22;42435;53.292;6.000;2023-07-08T15:10:25;36.60;38.80
56538;DHT22;42435;53.292;6.000;2023-07-08T15:12:52;36.70;38.30
56538;DHT22;42435;53.292;6.000;2023-07-08T15:15:30;36.70;38.20
56538;DHT22;42435;53.292;6.000;2023-07-08T15:17:58;36.60;39.20
56538;DHT22;42435;53.292;6.000;2023-07-08T15:20:24;36.60;39.50
56538;DHT22;42435;53.292;6.000;2023-07-08T15:22:50;36.60;39.90
56538;DHT22;42435;53.292;6.000;2023-07-08T15:25:17;36.50;38.80
56538;DHT22;42435;53.292;6.000;2023-07-08T15:27:52;36.50;39.10
56538;DHT22;42435;53.292;6.000;2023-07-08T15:30:20;36.30;38.40
56538;DHT22;42435;53.292;6.000;2023-07-08T15:32:46;36.20;38.70
56538;DHT22;42435;53.292;6.000;2023-07-08T15:35:14;36.00;39.40
56538;DHT22;42435;53.292;6.000;2023-07-08T15:37:42;35.90;39.80
56538;DHT22;42435;53.292;6.000;2023-07-08T15:40:08;35.80;39.40
56538;DHT22;42435;53.292;6.000;2023-07-08T15:42:37;35.90;39.60
56538;DHT22;42435;53.292;6.000;2023-07-08T15:45:26;36.00;39.30
56538;DHT22;42435;53.292;6.000;2023-07-08T15:47:52;36.00;39.70
56538;DHT22;42435;53.292;6.000;2023-07-08T15:50:20;35.90;40.00
56538;DHT22;42435;53.292;6.000;2023-07-08T15:52:47;35.80;41.10
56538;DHT22;42435;53.292;6.000;2023-07-08T15:55:16;35.80;41.50
56538;DHT22;42435;53.292;6.000;2023-07-08T15:57:51;35.70;41.90
56538;DHT22;42435;53.292;6.000;2023-07-08T16:00:26;35.50;42.20
56538;DHT22;42435;53.292;6.000;2023-07-08T16:02:56;35.50;41.70
56538;DHT22;42435;53.292;6.000;2023-07-08T16:05:22;35.40;42.10
56538;DHT22;42435;53.292;6.000;2023-07-08T16:07:50;35.50;41.90
56538;DHT22;42435;53.292;6.000;2023-07-08T16:10:16;35.60;41.90
56538;DHT22;42435;53.292;6.000;2023-07-08T16:12:46;35.60;42.00
56538;DHT22;42435;53.292;6.000;2023-07-08T16:17:55;35.70;41.70
56538;DHT22;42435;53.292;6.000;2023-07-08T16:20:24;35.60;41.90
56538;DHT22;42435;53.292;6.000;2023-07-08T16:22:50;35.50;42.40
56538;DHT22;42435;53.292;6.000;2023-07-08T16:25:20;35.40;42.70
56538;DHT22;42435;53.292;6.000;2023-07-08T16:27:48;35.40;42.70
56538;DHT22;42435;53.292;6.000;2023-07-08T16:30:17;35.30;42.90
56538;DHT22;42435;53.292;6.000;2023-07-08T16:32:43;35.30;42.40
56538;DHT22;42435;53.292;6.000;2023-07-08T16:35:11;35.20;42.30
56538;DHT22;42435;53.292;6.000;2023-07-08T16:37:37;35.10;42.80